Weather at Sport Airfield Popovi

Public forecast

Using degrees Celsius for public forecast. Weather courtesy of forecast.io.

Closest aviation weather report (METAR) to Sport Airfield Popovi

Closest report is Tuzla International Airport, 30.7 nm (56.9 km) SW.

2024/05/20 00:00 (retrieved 36 minutes ago)

LQTZ 200000Z VRB01KT 9999 SCT035 15/15 Q1012

Closest aviation forecast (TAF) to Sport Airfield Popovi

Forecast is more than 12 hours old.

Closest forecast is Bra─Ź Airport, 143.8 nm (266.4 km) SW.

2024/05/18 16:03 Ammendment (retrieved 1 day ago)

TAF AMD TAF AMD LDSB 181600Z 1816/1912 CNL